createdAt,value
2023-12-31T00:00:34.066Z,52.90
2023-12-31T00:01:34.116Z,54.73
2023-12-31T00:02:34.133Z,53.05
2023-12-31T00:03:34.209Z,53.55
2023-12-31T00:04:34.261Z,54.55
2023-12-31T00:05:34.356Z,51.15
2023-12-31T00:06:34.343Z,51.62
2023-12-31T00:07:34.408Z,52.07
2023-12-31T00:08:34.455Z,53.86
2023-12-31T00:09:34.512Z,53.42
2023-12-31T00:10:34.608Z,52.77
2023-12-31T00:11:34.631Z,53.60
2023-12-31T00:12:34.660Z,54.04
2023-12-31T00:13:34.740Z,53.90
2023-12-31T00:14:34.776Z,52.88
2023-12-31T00:15:34.836Z,53.71
2023-12-31T00:16:34.960Z,51.80
2023-12-31T00:17:34.945Z,53.43
2023-12-31T00:18:35.076Z,50.17
2023-12-31T00:19:35.170Z,51.92
2023-12-31T00:20:35.110Z,52.93
2023-12-31T00:21:35.157Z,52.85
2023-12-31T00:22:35.261Z,53.67
2023-12-31T00:23:35.328Z,53.48
2023-12-31T00:24:35.324Z,51.97
2023-12-31T00:25:35.376Z,53.75
2023-12-31T00:26:35.460Z,52.61
2023-12-31T00:27:35.489Z,52.42
2023-12-31T00:28:35.587Z,53.11
2023-12-31T00:29:35.589Z,54.13
2023-12-31T00:30:35.747Z,52.41
2023-12-31T00:31:35.761Z,53.54
2023-12-31T00:32:35.811Z,55.18
2023-12-31T00:33:35.842Z,51.85
2023-12-31T00:34:35.913Z,54.21
2023-12-31T00:35:35.907Z,53.05
2023-12-31T00:36:35.954Z,53.15
2023-12-31T00:37:36.017Z,52.65
2023-12-31T00:38:36.041Z,52.31
2023-12-31T00:39:36.106Z,52.30
2023-12-31T00:40:36.179Z,54.78
2023-12-31T00:41:36.232Z,52.14
2023-12-31T00:42:36.282Z,54.10
2023-12-31T00:43:36.344Z,53.60
2023-12-31T00:44:36.383Z,53.29
2023-12-31T00:45:36.445Z,52.02
2023-12-31T00:46:36.545Z,55.50
2023-12-31T00:47:36.604Z,53.29
2023-12-31T00:48:36.634Z,51.83
2023-12-31T00:49:36.752Z,53.06
2023-12-31T00:50:36.729Z,52.86
2023-12-31T00:51:36.860Z,53.05
2023-12-31T00:52:36.866Z,54.16
2023-12-31T00:53:36.951Z,52.29
2023-12-31T00:54:36.961Z,54.03
2023-12-31T00:55:37.064Z,53.80
2023-12-31T00:56:37.091Z,52.66
2023-12-31T00:57:37.160Z,52.85
2023-12-31T00:58:37.248Z,55.24
2023-12-31T00:59:37.268Z,54.83
2023-12-31T01:00:37.337Z,52.15
2023-12-31T01:01:37.497Z,52.03
2023-12-31T01:02:37.453Z,52.27
2023-12-31T01:03:37.596Z,51.68
2023-12-31T01:04:37.719Z,52.17
2023-12-31T01:05:37.693Z,53.72
2023-12-31T01:06:37.694Z,53.38
2023-12-31T01:07:37.871Z,53.52
2023-12-31T01:08:37.825Z,52.84
2023-12-31T01:09:37.899Z,55.06
2023-12-31T01:10:38.057Z,53.62
2023-12-31T01:11:38.026Z,52.04
2023-12-31T01:12:38.067Z,51.65
2023-12-31T01:13:38.190Z,51.82
2023-12-31T01:14:38.238Z,52.66
2023-12-31T01:15:38.250Z,50.13
2023-12-31T01:16:38.333Z,52.17
2023-12-31T01:17:38.397Z,53.32
2023-12-31T01:18:38.492Z,51.85
2023-12-31T01:19:38.527Z,51.75
2023-12-31T01:20:38.583Z,52.01
2023-12-31T01:21:38.647Z,52.90
2023-12-31T01:22:38.698Z,51.62
2023-12-31T01:23:38.743Z,53.41
2023-12-31T01:24:38.824Z,53.49
2023-12-31T01:25:38.938Z,51.23
2023-12-31T01:26:38.944Z,53.64
2023-12-31T01:27:39.013Z,53.55
2023-12-31T01:28:39.133Z,52.50
2023-12-31T01:29:39.149Z,52.77
2023-12-31T01:30:39.220Z,53.31
2023-12-31T01:31:39.293Z,53.55
2023-12-31T01:32:39.356Z,51.71
2023-12-31T01:33:39.429Z,51.95
2023-12-31T01:34:39.468Z,52.90
2023-12-31T01:35:39.489Z,53.89
2023-12-31T01:36:39.552Z,54.80
2023-12-31T01:37:39.685Z,51.30
2023-12-31T01:38:39.691Z,54.32
2023-12-31T01:39:39.776Z,53.71
2023-12-31T01:40:39.831Z,54.77
2023-12-31T01:41:39.881Z,52.84
2023-12-31T01:42:39.965Z,53.89
2023-12-31T01:43:40.137Z,54.82
2023-12-31T01:44:40.061Z,54.90
2023-12-31T01:45:40.134Z,53.96
2023-12-31T01:46:40.246Z,52.84
2023-12-31T01:47:40.316Z,54.15
2023-12-31T01:48:40.434Z,53.46
2023-12-31T01:49:40.391Z,54.76
2023-12-31T01:50:40.449Z,55.25
2023-12-31T01:51:40.494Z,54.67
2023-12-31T01:52:40.644Z,54.08
2023-12-31T01:53:40.629Z,54.29
2023-12-31T01:54:40.674Z,55.74
2023-12-31T01:55:40.749Z,53.98
2023-12-31T01:56:40.827Z,54.10
2023-12-31T01:57:40.867Z,55.13
2023-12-31T01:58:40.947Z,54.04
2023-12-31T01:59:40.990Z,55.66
2023-12-31T02:00:41.046Z,53.47
2023-12-31T02:01:41.152Z,54.11
2023-12-31T02:02:41.218Z,55.96
2023-12-31T02:03:41.227Z,56.05
2023-12-31T02:04:41.382Z,54.41
2023-12-31T02:05:41.386Z,55.42
2023-12-31T02:06:41.441Z,54.34
2023-12-31T02:07:41.499Z,55.45
2023-12-31T02:08:41.534Z,52.91
2023-12-31T02:09:41.596Z,53.90
2023-12-31T02:10:41.677Z,54.59
2023-12-31T02:11:41.747Z,54.38
2023-12-31T02:12:41.762Z,56.25
2023-12-31T02:13:41.906Z,54.69
2023-12-31T02:14:42.065Z,55.71
2023-12-31T02:15:42.269Z,53.63
2023-12-31T02:16:42.161Z,54.67
2023-12-31T02:17:42.059Z,55.53
2023-12-31T02:18:42.143Z,54.08
2023-12-31T02:19:42.122Z,55.47
2023-12-31T02:20:42.143Z,55.79
2023-12-31T02:21:42.157Z,57.85
2023-12-31T02:22:42.288Z,56.92
2023-12-31T02:23:42.276Z,57.15
2023-12-31T02:24:42.335Z,55.51
2023-12-31T02:25:42.446Z,55.63
2023-12-31T02:26:42.436Z,54.78
2023-12-31T02:27:42.504Z,56.56
2023-12-31T02:28:42.586Z,57.75
2023-12-31T02:29:42.609Z,56.28
2023-12-31T02:30:42.731Z,58.01
2023-12-31T02:31:42.783Z,59.25
2023-12-31T02:32:42.924Z,54.93
2023-12-31T02:33:42.905Z,56.63
2023-12-31T02:34:43.013Z,56.13
2023-12-31T02:35:43.034Z,55.75
2023-12-31T02:36:43.075Z,56.31
2023-12-31T02:37:43.307Z,55.54
2023-12-31T02:38:43.194Z,56.30
2023-12-31T02:39:43.250Z,54.37
2023-12-31T02:40:43.393Z,54.21
2023-12-31T02:41:43.388Z,57.19
2023-12-31T02:42:43.443Z,57.61
2023-12-31T02:43:43.661Z,59.08
2023-12-31T02:44:43.570Z,54.69
2023-12-31T02:45:43.621Z,53.19
2023-12-31T02:46:43.752Z,56.55
2023-12-31T02:47:43.793Z,55.93
2023-12-31T02:48:43.892Z,57.04
2023-12-31T02:49:43.965Z,56.62
2023-12-31T02:50:43.941Z,57.33
2023-12-31T02:51:44.020Z,57.97
2023-12-31T02:52:44.119Z,54.73
2023-12-31T02:53:44.163Z,53.06
2023-12-31T02:54:44.197Z,55.46
2023-12-31T02:55:44.436Z,55.83
2023-12-31T02:56:44.378Z,53.31
2023-12-31T02:57:44.407Z,55.04
2023-12-31T02:58:44.565Z,56.60
2023-12-31T02:59:44.621Z,56.93
2023-12-31T03:00:44.650Z,58.22
2023-12-31T03:01:44.720Z,50.73
2023-12-31T03:02:44.768Z,57.12
2023-12-31T03:03:44.832Z,53.55
2023-12-31T03:04:44.944Z,54.83
2023-12-31T03:05:44.958Z,52.31
2023-12-31T03:06:45.014Z,56.23
2023-12-31T03:07:45.123Z,53.87
2023-12-31T03:08:45.149Z,54.20
2023-12-31T03:09:45.190Z,55.48
2023-12-31T03:10:45.285Z,54.32
2023-12-31T03:11:45.336Z,56.46
2023-12-31T03:12:45.416Z,57.78
2023-12-31T03:13:45.535Z,59.33
2023-12-31T03:14:45.550Z,57.10
2023-12-31T03:15:45.598Z,54.56
2023-12-31T03:16:45.756Z,54.88
2023-12-31T03:17:45.802Z,55.86
2023-12-31T03:18:45.855Z,52.28
2023-12-31T03:19:45.951Z,54.97
2023-12-31T03:20:45.921Z,54.18
2023-12-31T03:21:46.017Z,56.32
2023-12-31T03:22:46.134Z,57.14
2023-12-31T03:23:46.131Z,55.52
2023-12-31T03:24:46.190Z,54.35
2023-12-31T03:25:46.286Z,55.29
2023-12-31T03:26:46.341Z,54.19
2023-12-31T03:27:46.432Z,55.62
2023-12-31T03:28:46.520Z,56.47
2023-12-31T03:29:46.537Z,54.43
2023-12-31T03:30:46.638Z,54.97
2023-12-31T03:31:46.744Z,54.27
2023-12-31T03:32:46.778Z,53.09
2023-12-31T03:33:46.817Z,51.24
2023-12-31T03:34:46.891Z,56.97
2023-12-31T03:35:46.970Z,55.63
2023-12-31T03:36:47.032Z,56.82
2023-12-31T03:37:47.129Z,56.68
2023-12-31T03:38:47.185Z,53.32
2023-12-31T03:39:47.219Z,54.21
2023-12-31T03:40:47.337Z,52.42
2023-12-31T03:41:47.363Z,55.35
2023-12-31T03:42:47.420Z,50.99
2023-12-31T03:43:47.567Z,52.87
2023-12-31T03:44:47.557Z,54.36
2023-12-31T03:45:47.628Z,51.86
2023-12-31T03:46:47.864Z,54.34
2023-12-31T03:47:47.831Z,54.04
2023-12-31T03:48:47.895Z,52.15
2023-12-31T03:49:47.974Z,55.78
2023-12-31T03:50:47.994Z,52.15
2023-12-31T03:51:48.081Z,54.51
2023-12-31T03:52:48.232Z,55.46
2023-12-31T03:53:48.195Z,53.72
2023-12-31T03:54:48.261Z,51.74
2023-12-31T03:55:48.470Z,53.19
2023-12-31T03:56:48.402Z,51.81
2023-12-31T03:57:48.466Z,54.18
2023-12-31T03:58:48.604Z,51.41
2023-12-31T03:59:48.601Z,52.87
2023-12-31T04:00:48.706Z,52.03
2023-12-31T04:01:48.753Z,55.85
2023-12-31T04:02:48.811Z,54.07
2023-12-31T04:03:48.919Z,54.32
2023-12-31T04:04:49.076Z,50.87
2023-12-31T04:05:49.065Z,54.12
2023-12-31T04:06:49.089Z,52.28
2023-12-31T04:07:51.603Z,55.13
2023-12-31T04:08:49.136Z,54.41
2023-12-31T04:09:49.148Z,53.64
2023-12-31T04:10:49.201Z,54.18
2023-12-31T04:11:49.174Z,53.98
2023-12-31T04:12:49.160Z,54.79
2023-12-31T04:13:49.236Z,51.01
2023-12-31T04:14:49.154Z,55.14
2023-12-31T04:15:49.167Z,54.14
2023-12-31T04:16:49.210Z,52.37
2023-12-31T04:17:49.233Z,51.56
2023-12-31T04:18:49.310Z,51.93
2023-12-31T04:19:49.250Z,51.13
2023-12-31T04:20:49.189Z,54.78
2023-12-31T04:21:49.160Z,54.11
2023-12-31T04:22:49.221Z,54.38
2023-12-31T04:23:49.169Z,51.26
2023-12-31T04:24:49.266Z,50.00
2023-12-31T04:25:49.239Z,51.01
2023-12-31T04:26:49.185Z,52.29
2023-12-31T04:27:49.208Z,53.00
2023-12-31T04:28:49.214Z,53.21
2023-12-31T04:29:49.206Z,50.62
2023-12-31T04:30:49.253Z,53.98
2023-12-31T04:31:52.736Z,52.28
2023-12-31T04:32:50.232Z,52.38
2023-12-31T04:33:49.229Z,52.76
2023-12-31T04:34:49.235Z,53.45
2023-12-31T04:35:51.317Z,52.91
2023-12-31T04:36:49.202Z,52.92
2023-12-31T04:37:49.244Z,50.20
2023-12-31T04:38:49.212Z,54.96
2023-12-31T04:39:49.211Z,51.22
2023-12-31T04:40:49.235Z,55.19
2023-12-31T04:41:49.235Z,54.34
2023-12-31T04:42:49.195Z,54.31
2023-12-31T04:43:49.282Z,52.97
2023-12-31T04:44:49.200Z,53.76
2023-12-31T04:45:49.198Z,51.67
2023-12-31T04:46:49.332Z,54.57
2023-12-31T04:47:49.255Z,51.47
2023-12-31T04:48:49.216Z,53.20
2023-12-31T04:49:49.281Z,51.79
2023-12-31T04:50:49.278Z,51.87
2023-12-31T04:51:49.234Z,51.92
2023-12-31T04:52:49.248Z,52.76
2023-12-31T04:53:49.254Z,50.43
2023-12-31T04:54:49.215Z,52.43
2023-12-31T04:55:49.352Z,54.99
2023-12-31T04:56:49.217Z,55.87
2023-12-31T04:57:49.226Z,54.32
2023-12-31T04:58:56.608Z,50.00
2023-12-31T04:59:56.575Z,50.00
2023-12-31T05:00:56.607Z,50.00
2023-12-31T05:01:56.671Z,50.00
2023-12-31T05:02:56.594Z,50.00
2023-12-31T05:03:56.649Z,50.13
2023-12-31T05:04:56.629Z,51.91
2023-12-31T05:05:56.606Z,51.39
2023-12-31T05:06:56.595Z,50.06
2023-12-31T05:07:56.658Z,50.00
2023-12-31T05:08:56.594Z,52.89
2023-12-31T05:09:56.608Z,54.23
2023-12-31T05:10:56.658Z,52.54
2023-12-31T05:11:56.601Z,50.37
2023-12-31T05:12:56.591Z,54.07
2023-12-31T05:13:56.641Z,53.39
2023-12-31T05:14:56.608Z,52.55
2023-12-31T05:15:56.592Z,54.94
2023-12-31T05:16:56.710Z,52.59
2023-12-31T05:17:56.689Z,54.75
2023-12-31T05:18:56.695Z,52.82
2023-12-31T05:19:56.641Z,51.75
2023-12-31T05:20:56.597Z,51.52
2023-12-31T05:21:56.603Z,54.96
2023-12-31T05:22:56.633Z,54.56
2023-12-31T05:23:56.620Z,51.85
2023-12-31T05:24:56.606Z,50.20
2023-12-31T05:25:56.696Z,52.00
2023-12-31T05:26:56.736Z,51.81
2023-12-31T05:27:56.824Z,54.97
2023-12-31T05:28:56.908Z,54.73
2023-12-31T05:29:56.940Z,52.80
2023-12-31T05:30:57.084Z,53.48
2023-12-31T05:31:57.164Z,52.73
2023-12-31T05:32:57.215Z,51.36
2023-12-31T05:33:57.279Z,51.12
2023-12-31T05:34:57.337Z,55.40
2023-12-31T05:35:57.367Z,55.01
2023-12-31T05:36:57.449Z,53.36
2023-12-31T05:37:57.517Z,55.70
2023-12-31T05:38:57.575Z,56.27
2023-12-31T05:39:57.638Z,53.86
2023-12-31T05:40:57.726Z,55.16
2023-12-31T05:41:57.773Z,52.57
2023-12-31T05:42:57.855Z,52.68
2023-12-31T05:43:57.980Z,55.88
2023-12-31T05:44:57.985Z,55.47
2023-12-31T05:45:58.073Z,53.26
2023-12-31T05:46:58.178Z,54.46
2023-12-31T05:47:58.400Z,53.66
2023-12-31T05:48:58.372Z,50.00
2023-12-31T05:49:58.584Z,56.77
2023-12-31T05:50:58.393Z,55.71
2023-12-31T05:51:58.474Z,53.55
2023-12-31T05:52:58.543Z,56.64
2023-12-31T05:53:58.667Z,55.45
2023-12-31T05:54:58.697Z,55.85
2023-12-31T05:55:58.744Z,55.47
2023-12-31T05:56:58.805Z,54.96
2023-12-31T05:57:58.886Z,51.72
2023-12-31T05:58:58.940Z,54.61
2023-12-31T05:59:59.022Z,54.78
2023-12-31T06:00:59.125Z,52.89
2023-12-31T06:01:59.155Z,54.68
2023-12-31T06:02:59.216Z,55.83
2023-12-31T06:03:59.315Z,54.64
2023-12-31T06:04:59.372Z,57.30
2023-12-31T06:05:59.444Z,53.12
2023-12-31T06:06:59.498Z,52.79
2023-12-31T06:07:59.571Z,56.01
2023-12-31T06:08:59.641Z,55.33
2023-12-31T06:09:59.709Z,53.48
2023-12-31T06:10:59.831Z,54.59
2023-12-31T06:11:59.868Z,50.00
2023-12-31T06:12:59.924Z,56.26
2023-12-31T06:14:00.017Z,54.61
2023-12-31T06:15:00.057Z,55.46
2023-12-31T06:16:00.155Z,52.60
2023-12-31T06:17:00.200Z,51.70
2023-12-31T06:18:00.453Z,56.41
2023-12-31T06:19:00.363Z,52.69
2023-12-31T06:20:00.402Z,53.33
2023-12-31T06:21:00.479Z,55.00
2023-12-31T06:22:00.553Z,53.96
2023-12-31T06:23:00.627Z,54.48
2023-12-31T06:24:00.693Z,55.44
2023-12-31T06:25:00.768Z,53.68
2023-12-31T06:26:00.831Z,53.91
2023-12-31T06:27:00.900Z,56.85
2023-12-31T06:28:00.966Z,54.25
2023-12-31T06:29:01.042Z,52.66
2023-12-31T06:30:01.223Z,55.63
2023-12-31T06:31:01.234Z,51.67
2023-12-31T06:32:01.329Z,52.72
2023-12-31T06:33:01.572Z,51.86
2023-12-31T06:34:01.376Z,53.07
2023-12-31T06:35:01.438Z,55.02
2023-12-31T06:36:01.512Z,53.01
2023-12-31T06:37:01.591Z,53.08
2023-12-31T06:38:01.652Z,55.17
2023-12-31T06:39:01.748Z,55.19
2023-12-31T06:40:01.820Z,54.41
2023-12-31T06:41:01.906Z,54.39
2023-12-31T06:42:01.991Z,53.09
2023-12-31T06:43:02.345Z,53.54
2023-12-31T06:44:02.092Z,53.42
2023-12-31T06:45:02.173Z,54.51
2023-12-31T06:46:02.253Z,53.38
2023-12-31T06:47:02.316Z,55.03
2023-12-31T06:48:02.465Z,52.98
2023-12-31T06:49:02.505Z,56.32
2023-12-31T06:50:02.628Z,55.02
2023-12-31T06:51:02.565Z,53.43
2023-12-31T06:52:02.650Z,53.53
2023-12-31T06:53:02.942Z,52.76
2023-12-31T06:54:02.756Z,54.54
2023-12-31T06:55:02.834Z,53.93
2023-12-31T06:56:02.918Z,52.94
2023-12-31T06:57:03.805Z,54.77
2023-12-31T06:58:03.082Z,55.54
2023-12-31T06:59:03.076Z,54.55
2023-12-31T07:00:03.552Z,56.64
2023-12-31T07:01:03.551Z,53.75
2023-12-31T07:02:03.324Z,54.39
2023-12-31T07:03:03.583Z,53.99
2023-12-31T07:04:03.402Z,54.76
2023-12-31T07:05:03.575Z,54.47
2023-12-31T07:06:03.548Z,53.36
2023-12-31T07:07:03.614Z,52.79
2023-12-31T07:08:03.742Z,54.21
2023-12-31T07:09:03.712Z,52.41
2023-12-31T07:10:03.787Z,52.64
2023-12-31T07:11:03.909Z,54.30
2023-12-31T07:12:03.903Z,54.12
2023-12-31T07:13:04.272Z,55.85
2023-12-31T07:14:04.034Z,52.78
2023-12-31T07:15:04.071Z,55.83
2023-12-31T07:16:04.147Z,55.71
2023-12-31T07:17:04.292Z,55.00
2023-12-31T07:18:04.407Z,55.05
2023-12-31T07:19:04.484Z,53.74
2023-12-31T07:20:04.452Z,52.09
2023-12-31T07:21:04.458Z,53.62
2023-12-31T07:22:04.520Z,52.81
2023-12-31T07:23:04.869Z,56.98
2023-12-31T07:24:04.677Z,53.70
2023-12-31T07:25:04.744Z,55.19
2023-12-31T07:26:04.815Z,53.94
2023-12-31T07:27:04.880Z,50.66
2023-12-31T07:28:04.962Z,53.57
2023-12-31T07:29:10.215Z,54.16
2023-12-31T07:30:06.067Z,54.18
2023-12-31T07:31:05.026Z,54.60
2023-12-31T07:32:05.029Z,54.21
2023-12-31T07:33:05.371Z,54.72
2023-12-31T07:34:05.700Z,57.07
2023-12-31T07:35:05.068Z,55.79
2023-12-31T07:36:05.021Z,54.83
2023-12-31T07:37:05.045Z,55.63
2023-12-31T07:38:05.114Z,56.31
2023-12-31T07:39:05.483Z,53.27
2023-12-31T07:40:05.292Z,55.06
2023-12-31T07:41:05.321Z,55.67
2023-12-31T07:42:05.418Z,55.76
2023-12-31T07:43:05.713Z,55.94
2023-12-31T07:44:05.531Z,54.26
2023-12-31T07:45:05.596Z,56.09
2023-12-31T07:46:05.687Z,54.61
2023-12-31T07:47:05.904Z,56.19
2023-12-31T07:48:05.932Z,55.53
2023-12-31T07:49:05.983Z,55.54
2023-12-31T07:50:06.024Z,51.46
2023-12-31T07:51:06.030Z,54.99
2023-12-31T07:52:06.066Z,54.55
2023-12-31T07:53:06.632Z,53.43
2023-12-31T07:54:06.209Z,53.25
2023-12-31T07:55:06.265Z,53.76
2023-12-31T07:56:08.285Z,55.35
2023-12-31T07:57:06.397Z,56.76
2023-12-31T07:58:06.431Z,55.24
2023-12-31T07:59:06.494Z,53.13
2023-12-31T08:00:06.556Z,54.59
2023-12-31T08:01:06.673Z,55.83
2023-12-31T08:02:06.723Z,52.12
2023-12-31T08:03:07.148Z,52.46
2023-12-31T08:04:06.833Z,55.96
2023-12-31T08:05:06.902Z,55.97
2023-12-31T08:06:07.019Z,53.78
2023-12-31T08:07:07.040Z,54.65
2023-12-31T08:08:07.093Z,55.75
2023-12-31T08:09:07.171Z,52.65
2023-12-31T08:10:07.233Z,55.09
2023-12-31T08:11:07.373Z,54.70
2023-12-31T08:12:07.371Z,53.70
2023-12-31T08:13:07.441Z,52.98
2023-12-31T08:14:07.520Z,54.23
2023-12-31T08:15:07.610Z,53.24
2023-12-31T08:16:07.676Z,54.29
2023-12-31T08:17:07.728Z,53.59
2023-12-31T08:18:07.973Z,55.32
2023-12-31T08:19:08.054Z,51.50
2023-12-31T08:20:07.954Z,54.65
2023-12-31T08:21:08.005Z,54.04
2023-12-31T08:22:08.091Z,52.90
2023-12-31T08:23:08.495Z,54.36
2023-12-31T08:24:08.209Z,53.86
2023-12-31T08:25:08.292Z,55.43
2023-12-31T08:26:08.378Z,52.37
2023-12-31T08:27:08.450Z,54.94
2023-12-31T08:28:08.504Z,55.17
2023-12-31T08:29:08.602Z,54.03
2023-12-31T08:30:08.717Z,53.25
2023-12-31T08:31:08.733Z,53.04
2023-12-31T08:32:08.835Z,54.63
2023-12-31T08:33:09.133Z,57.41
2023-12-31T08:34:09.026Z,53.57
2023-12-31T08:35:09.075Z,53.33
2023-12-31T08:36:09.115Z,56.23
2023-12-31T08:37:09.147Z,53.86
2023-12-31T08:38:09.216Z,53.29
2023-12-31T08:39:09.323Z,54.34
2023-12-31T08:40:09.362Z,52.13
2023-12-31T08:41:09.428Z,53.52
2023-12-31T08:42:09.498Z,54.91
2023-12-31T08:43:09.574Z,54.35
2023-12-31T08:44:09.653Z,52.80
2023-12-31T08:45:09.726Z,53.42
2023-12-31T08:46:09.798Z,54.72
2023-12-31T08:47:09.854Z,52.71
2023-12-31T08:48:10.004Z,51.98
2023-12-31T08:49:10.022Z,53.26
2023-12-31T08:50:10.054Z,52.36
2023-12-31T08:51:10.100Z,55.44
2023-12-31T08:52:10.200Z,53.37
2023-12-31T08:53:10.245Z,55.01
2023-12-31T08:54:10.320Z,52.98
2023-12-31T08:55:10.390Z,53.80
2023-12-31T08:56:10.471Z,53.78
2023-12-31T08:57:10.550Z,53.14
2023-12-31T08:58:10.616Z,55.65
2023-12-31T08:59:10.689Z,55.57
2023-12-31T09:00:10.758Z,51.89
2023-12-31T09:01:10.854Z,54.19
2023-12-31T09:02:10.879Z,51.98
2023-12-31T09:03:10.993Z,54.73
2023-12-31T09:04:11.036Z,51.55
2023-12-31T09:05:11.261Z,52.58
2023-12-31T09:06:11.173Z,50.67
2023-12-31T09:07:11.228Z,53.74
2023-12-31T09:08:11.306Z,53.42
2023-12-31T09:09:12.969Z,54.54
2023-12-31T09:10:11.416Z,55.96
2023-12-31T09:11:11.483Z,53.49
2023-12-31T09:12:11.525Z,54.21
2023-12-31T09:13:11.692Z,54.41
2023-12-31T09:14:11.638Z,56.34
2023-12-31T09:15:11.715Z,55.29
2023-12-31T09:16:11.779Z,53.48
2023-12-31T09:17:11.865Z,53.23
2023-12-31T09:18:12.000Z,56.43
2023-12-31T09:19:12.045Z,54.77
2023-12-31T09:20:12.038Z,53.36
2023-12-31T09:21:12.116Z,52.50
2023-12-31T09:22:12.166Z,53.76
2023-12-31T09:23:12.260Z,54.46
2023-12-31T09:24:12.269Z,55.67
2023-12-31T09:25:12.357Z,56.70
2023-12-31T09:26:12.394Z,55.19
2023-12-31T09:27:12.463Z,54.77
2023-12-31T09:28:12.509Z,53.16
2023-12-31T09:29:12.588Z,53.61
2023-12-31T09:30:12.671Z,52.13
2023-12-31T09:31:12.751Z,56.25
2023-12-31T09:32:12.760Z,54.57
2023-12-31T09:33:12.896Z,51.42
2023-12-31T09:34:12.884Z,52.90
2023-12-31T09:35:12.963Z,53.51
2023-12-31T09:36:15.822Z,56.03
2023-12-31T09:37:12.996Z,54.12
2023-12-31T09:38:13.002Z,54.35
2023-12-31T09:39:13.002Z,52.62
2023-12-31T09:40:13.015Z,52.13
2023-12-31T09:41:13.010Z,53.98
2023-12-31T09:42:13.014Z,53.32
2023-12-31T09:43:13.004Z,54.25
2023-12-31T09:44:13.035Z,56.42
2023-12-31T09:45:13.011Z,54.33
2023-12-31T09:46:13.016Z,52.60
2023-12-31T09:47:13.381Z,53.62
2023-12-31T09:48:13.129Z,56.54
2023-12-31T09:49:13.057Z,55.42
2023-12-31T09:50:13.077Z,56.56
2023-12-31T09:51:13.021Z,56.97
2023-12-31T09:52:13.017Z,53.68
2023-12-31T09:53:13.095Z,55.48
2023-12-31T09:54:13.027Z,55.04
2023-12-31T09:55:13.022Z,53.39
2023-12-31T09:56:13.036Z,54.86
2023-12-31T09:57:15.423Z,54.75
2023-12-31T09:58:13.026Z,54.83
2023-12-31T09:59:13.068Z,55.19
2023-12-31T10:00:13.044Z,53.75
2023-12-31T10:01:13.086Z,56.18
2023-12-31T10:02:13.032Z,57.04
2023-12-31T10:03:13.048Z,55.68
2023-12-31T10:04:13.553Z,56.61
2023-12-31T10:05:13.126Z,54.25
2023-12-31T10:06:13.023Z,55.91
2023-12-31T10:07:13.038Z,55.81
2023-12-31T10:08:13.037Z,54.70
2023-12-31T10:09:13.027Z,58.74
2023-12-31T10:10:13.051Z,56.30
2023-12-31T10:11:13.042Z,54.72
2023-12-31T10:12:13.041Z,54.40
2023-12-31T10:13:13.057Z,55.80
2023-12-31T10:14:13.064Z,55.17
2023-12-31T10:15:13.063Z,56.84
2023-12-31T10:16:13.057Z,57.64
2023-12-31T10:17:13.086Z,55.09
2023-12-31T10:18:13.134Z,53.76
2023-12-31T10:19:13.060Z,53.22
2023-12-31T10:20:13.082Z,54.24
2023-12-31T10:21:13.066Z,56.84
2023-12-31T10:22:13.067Z,53.84
2023-12-31T10:23:13.141Z,56.69
2023-12-31T10:24:13.089Z,54.33
2023-12-31T10:25:13.077Z,57.88
2023-12-31T10:26:13.083Z,54.50
2023-12-31T10:27:13.084Z,55.67
2023-12-31T10:28:13.072Z,54.82
2023-12-31T10:29:13.075Z,55.05
2023-12-31T10:30:13.177Z,54.60
2023-12-31T10:31:13.082Z,55.48
2023-12-31T10:32:13.118Z,55.38
2023-12-31T10:33:13.206Z,54.89
2023-12-31T10:34:13.236Z,55.31
2023-12-31T10:35:13.328Z,54.55
2023-12-31T10:36:13.331Z,57.20
2023-12-31T10:37:13.320Z,56.33
2023-12-31T10:38:13.466Z,54.14
2023-12-31T10:39:13.420Z,55.40
2023-12-31T10:40:13.446Z,56.16
2023-12-31T10:41:13.482Z,54.75
2023-12-31T10:42:13.547Z,57.27
2023-12-31T10:43:13.576Z,57.89
2023-12-31T10:44:13.682Z,54.16
2023-12-31T10:45:13.681Z,55.40
2023-12-31T10:46:13.680Z,56.18
2023-12-31T10:47:13.748Z,55.18
2023-12-31T10:48:14.001Z,55.81
2023-12-31T10:49:13.798Z,55.75
2023-12-31T10:50:13.891Z,54.57
2023-12-31T10:51:13.868Z,56.57
2023-12-31T10:52:13.927Z,56.82
2023-12-31T10:53:14.025Z,55.62
2023-12-31T10:54:13.992Z,58.57
2023-12-31T10:55:14.034Z,55.81
2023-12-31T10:56:14.079Z,56.40
2023-12-31T10:57:14.366Z,56.56
2023-12-31T10:58:14.158Z,58.12
2023-12-31T10:59:14.196Z,57.71
2023-12-31T11:00:14.234Z,57.27
2023-12-31T11:01:14.329Z,57.92
2023-12-31T11:02:14.336Z,55.35
2023-12-31T11:03:14.384Z,56.93
2023-12-31T11:04:14.399Z,55.05
2023-12-31T11:05:14.440Z,58.41
2023-12-31T11:06:14.462Z,56.03
2023-12-31T11:07:14.524Z,57.51
2023-12-31T11:08:14.534Z,57.56
2023-12-31T11:09:14.568Z,56.90
2023-12-31T11:10:14.644Z,56.00
2023-12-31T11:11:14.642Z,57.72
2023-12-31T11:12:14.679Z,57.00
2023-12-31T11:13:14.720Z,58.38
2023-12-31T11:14:14.752Z,58.70
2023-12-31T11:15:14.778Z,56.30
2023-12-31T11:16:14.790Z,56.97
2023-12-31T11:17:19.227Z,57.19
2023-12-31T11:18:15.999Z,57.36
2023-12-31T11:19:14.949Z,57.37
2023-12-31T11:20:14.839Z,57.57
2023-12-31T11:21:14.842Z,55.50
2023-12-31T11:22:14.845Z,58.32
2023-12-31T11:23:14.878Z,59.25
2023-12-31T11:24:14.840Z,58.29
2023-12-31T11:25:14.872Z,59.84
2023-12-31T11:26:14.857Z,58.50
2023-12-31T11:27:14.853Z,59.01
2023-12-31T11:28:14.868Z,58.03
2023-12-31T11:29:14.859Z,58.93
2023-12-31T11:30:14.893Z,57.39
2023-12-31T11:31:14.878Z,59.30
2023-12-31T11:32:14.897Z,58.68
2023-12-31T11:33:14.952Z,60.23
2023-12-31T11:34:15.003Z,59.61
2023-12-31T11:35:15.030Z,58.37
2023-12-31T11:36:15.056Z,57.92
2023-12-31T11:37:15.109Z,62.97
2023-12-31T11:38:15.162Z,60.78
2023-12-31T11:39:15.214Z,57.72
2023-12-31T11:40:15.252Z,59.37
2023-12-31T11:41:15.333Z,59.03
2023-12-31T11:42:15.358Z,60.87
2023-12-31T11:43:15.455Z,61.03
2023-12-31T11:44:15.463Z,61.11
2023-12-31T11:45:15.519Z,59.85
2023-12-31T11:46:15.572Z,60.72
2023-12-31T11:47:15.621Z,60.06
2023-12-31T11:48:15.762Z,61.16
2023-12-31T11:49:15.783Z,57.29
2023-12-31T11:50:15.823Z,60.13
2023-12-31T11:51:15.885Z,59.38
2023-12-31T11:52:15.905Z,58.60
2023-12-31T11:53:15.979Z,58.75
2023-12-31T11:54:16.028Z,59.89
2023-12-31T11:55:16.098Z,62.37
2023-12-31T11:56:16.167Z,62.33
2023-12-31T11:57:16.245Z,61.66
2023-12-31T11:58:16.288Z,61.09
2023-12-31T11:59:16.363Z,60.07
2023-12-31T12:00:16.452Z,58.37
2023-12-31T12:01:16.505Z,60.76
2023-12-31T12:02:16.596Z,58.53
2023-12-31T12:03:16.629Z,56.84
2023-12-31T12:04:16.722Z,59.34
2023-12-31T12:05:16.760Z,58.97
2023-12-31T12:06:16.862Z,60.75
2023-12-31T12:07:16.920Z,62.43
2023-12-31T12:08:16.971Z,59.32
2023-12-31T12:09:17.021Z,58.70
2023-12-31T12:10:17.115Z,58.42
2023-12-31T12:11:17.155Z,61.50
2023-12-31T12:12:17.222Z,60.66
2023-12-31T12:13:17.278Z,60.60
2023-12-31T12:14:17.351Z,59.37
2023-12-31T12:15:17.408Z,61.57
2023-12-31T12:16:17.589Z,61.05
2023-12-31T12:17:17.641Z,63.50
2023-12-31T12:18:17.707Z,59.20
2023-12-31T12:19:17.764Z,59.53
2023-12-31T12:20:17.741Z,59.77
2023-12-31T12:21:17.804Z,58.94
2023-12-31T12:22:17.885Z,63.33
2023-12-31T12:23:17.930Z,59.06
2023-12-31T12:24:17.993Z,59.75
2023-12-31T12:25:18.106Z,61.60
2023-12-31T12:26:18.145Z,60.56
2023-12-31T12:27:18.210Z,59.51
2023-12-31T12:28:18.293Z,62.80
2023-12-31T12:29:18.297Z,62.08
2023-12-31T12:30:18.414Z,61.31
2023-12-31T12:31:18.416Z,61.62
2023-12-31T12:32:18.411Z,58.35
2023-12-31T12:33:18.843Z,58.82
2023-12-31T12:34:18.528Z,59.73
2023-12-31T12:35:18.530Z,56.85
2023-12-31T12:36:18.580Z,60.81
2023-12-31T12:37:18.689Z,58.90
2023-12-31T12:38:18.656Z,61.49
2023-12-31T12:39:18.675Z,61.81
2023-12-31T12:40:18.744Z,61.07
2023-12-31T12:41:18.727Z,59.76
2023-12-31T12:42:18.734Z,60.35
2023-12-31T12:43:18.757Z,61.09
2023-12-31T12:44:18.747Z,64.19
2023-12-31T12:45:18.802Z,61.00
2023-12-31T12:46:18.817Z,63.29
2023-12-31T12:47:18.815Z,60.13
2023-12-31T12:48:18.915Z,60.85
2023-12-31T12:49:18.816Z,61.57
2023-12-31T12:50:18.805Z,60.52
2023-12-31T12:51:18.820Z,61.54
2023-12-31T12:52:18.845Z,63.47
2023-12-31T12:53:18.836Z,63.65